Time;durP1;ratioP1;P1;durP2;ratioP2;P2;SDS_P1;SDS_P2;PMS_P1;PMS_P2;Temp;Humidity;BMP_temperature;BMP_pressure;BME280_temperature;BME280_humidity;BME280_pressure;Samples;Min_cycle;Max_cycle;Signal;HPM_P1;HPM_P2
2023/03/18 00:02:01;;;;;;;3.10;2.57;;;;;;;-142.52;100.00;62712.56;6116450;28;21863;-77
2023/03/18 00:05:22;;;;;;;3.57;2.90;;;;;;;-142.52;100.00;62712.56;6121620;28;20676;-77
2023/03/18 00:08:46;;;;;;;2.50;2.30;;;;;;;-142.52;100.00;62712.56;6131911;28;20230;-77
2023/03/18 00:12:08;;;;;;;2.73;2.53;;;;;;;-142.52;100.00;62712.56;6119279;28;20234;-77
2023/03/18 00:15:29;;;;;;;3.50;3.20;;;;;;;-142.52;100.00;62712.56;6129922;28;20226;-77
2023/03/18 00:18:50;;;;;;;3.57;2.43;;;;;;;-142.52;100.00;62712.56;6139054;28;20254;-76
2023/03/18 00:22:11;;;;;;;2.13;1.93;;;;;;;-142.52;100.00;62712.56;6114951;28;20440;-76
2023/03/18 00:25:33;;;;;;;3.33;3.03;;;;;;;-142.52;100.00;62712.56;6128684;28;20248;-76
2023/03/18 00:28:56;;;;;;;5.30;3.47;;;;;;;-142.52;100.00;62712.56;6137934;28;20235;-76
2023/03/18 00:32:17;;;;;;;2.23;1.93;;;;;;;-142.52;100.00;62712.56;6110070;28;20314;-76
2023/03/18 00:35:39;;;;;;;3.77;2.70;;;;;;;-142.52;100.00;62712.56;6120139;28;20243;-76
2023/03/18 00:39:02;;;;;;;3.20;2.00;;;;;;;-142.52;100.00;62712.56;6129507;28;20243;-75
2023/03/18 00:42:24;;;;;;;2.77;2.57;;;;;;;-142.52;100.00;62712.56;6119024;28;20236;-76
2023/03/18 00:45:45;;;;;;;4.00;2.40;;;;;;;-142.52;100.00;62712.56;6115357;28;20515;-75
2023/03/18 00:49:08;;;;;;;2.70;2.50;;;;;;;-142.52;100.00;62712.56;6120781;28;20259;-76
2023/03/18 00:52:29;;;;;;;2.63;2.43;;;;;;;-142.52;100.00;62712.56;6108250;28;20250;-74
2023/03/18 00:55:51;;;;;;;2.67;2.03;;;;;;;-142.52;100.00;62712.56;6137853;28;20235;-75
2023/03/18 00:59:14;;;;;;;3.03;2.70;;;;;;;-142.52;100.00;62712.56;6121171;28;20555;-75
2023/03/18 01:02:37;;;;;;;5.27;3.37;;;;;;;-142.52;100.00;62712.56;6120465;28;20239;-75
2023/03/18 01:05:58;;;;;;;2.40;2.20;;;;;;;-142.52;100.00;62712.56;6098871;29;20227;-77
2023/03/18 01:09:19;;;;;;;3.50;2.47;;;;;;;-142.52;100.00;62712.56;6121792;28;20231;-77
2023/03/18 01:12:40;;;;;;;3.07;2.33;;;;;;;-142.52;100.00;62712.56;6130422;28;20235;-76
2023/03/18 01:16:04;;;;;;;2.63;2.33;;;;;;;-142.52;100.00;62712.56;6105189;29;20590;-76
2023/03/18 01:19:25;;;;;;;2.87;1.97;;;;;;;-142.52;100.00;62712.56;6130765;28;20227;-75
2023/03/18 01:22:46;;;;;;;3.00;2.10;;;;;;;-142.52;100.00;62712.56;6121818;28;20239;-76
2023/03/18 01:26:09;;;;;;;2.03;1.93;;;;;;;-142.52;100.00;62712.56;6112108;29;20235;-75
2023/03/18 01:29:32;;;;;;;3.20;2.90;;;;;;;-142.52;100.00;62712.56;6128942;28;20338;-78
2023/03/18 01:32:55;;;;;;;2.13;1.93;;;;;;;-142.52;100.00;62712.56;6142568;28;20231;-76
2023/03/18 01:36:17;;;;;;;2.43;1.90;;;;;;;-142.52;100.00;62712.56;6098179;29;20263;-77
2023/03/18 01:39:43;;;;;;;2.63;2.10;;;;;;;-142.52;100.00;62712.56;6108255;28;20255;-76
2023/03/18 01:43:17;;;;;;;2.60;2.40;;;;;;;-142.52;100.00;62712.56;6131661;28;20857;-75
2023/03/18 01:46:40;;;;;;;3.93;2.00;;;;;;;-142.52;100.00;62712.56;6113895;29;20228;-76
2023/03/18 01:50:02;;;;;;;4.20;3.00;;;;;;;-142.52;100.00;62712.56;6124904;28;20650;-76
2023/03/18 01:53:28;;;;;;;3.13;2.07;;;;;;;-142.52;100.00;62712.56;6148076;28;20224;-75
2023/03/18 01:56:50;;;;;;;2.83;2.37;;;;;;;-142.52;100.00;62712.56;6121330;28;20239;-76
2023/03/18 02:00:14;;;;;;;3.10;2.90;;;;;;;-142.52;100.00;62712.56;6109891;28;20252;-75
2023/03/18 02:03:36;;;;;;;2.17;1.70;;;;;;;-142.52;100.00;62712.56;6135905;28;20235;-76
2023/03/18 02:07:00;;;;;;;2.30;1.70;;;;;;;-142.52;100.00;62712.56;6107142;28;20239;-76
2023/03/18 02:10:23;;;;;;;2.13;1.83;;;;;;;-142.52;100.00;62712.56;6115474;28;20314;-75
2023/03/18 02:13:47;;;;;;;2.47;2.07;;;;;;;-142.52;100.00;62712.56;6119122;28;20231;-75
2023/03/18 02:17:13;;;;;;;2.00;1.90;;;;;;;-142.52;100.00;62712.56;6112838;28;20227;-76
2023/03/18 02:20:45;;;;;;;4.40;2.73;;;;;;;-142.52;100.00;62712.56;6117824;28;20598;-76
2023/03/18 02:24:21;;;;;;;2.50;2.10;;;;;;;-142.52;100.00;62712.56;6116538;28;20278;-77
2023/03/18 02:27:47;;;;;;;1.67;1.60;;;;;;;-142.52;100.00;62712.56;6130256;28;20239;-76
2023/03/18 02:31:11;;;;;;;2.83;2.20;;;;;;;-142.52;100.00;62712.56;6102765;28;20232;-77
2023/03/18 02:34:35;;;;;;;5.73;2.50;;;;;;;-142.52;100.00;62712.56;6118022;28;20226;-77
2023/03/18 02:37:56;;;;;;;2.20;1.40;;;;;;;-142.52;100.00;62712.56;6142104;28;20230;-76
2023/03/18 02:41:20;;;;;;;3.00;2.50;;;;;;;-142.52;100.00;62712.56;6112140;28;20560;-74
2023/03/18 02:44:47;;;;;;;1.83;1.73;;;;;;;-142.52;100.00;62712.56;6116508;28;20235;-75
2023/03/18 02:48:38;;;;;;;2.50;1.97;;;;;;;-142.52;100.00;62712.56;6131094;28;20780;-76
2023/03/18 02:52:00;;;;;;;2.20;2.10;;;;;;;-142.52;100.00;62712.56;6119003;28;20689;-77
2023/03/18 02:55:21;;;;;;;2.60;1.57;;;;;;;-142.52;100.00;62712.56;6120188;28;20318;-75
2023/03/18 02:58:41;;;;;;;1.90;1.80;;;;;;;-142.52;100.00;62712.56;6123339;28;20235;-75
2023/03/18 03:02:05;;;;;;;1.80;1.70;;;;;;;-142.52;100.00;62712.56;6111503;28;20226;-76
2023/03/18 03:05:27;;;;;;;2.40;1.90;;;;;;;-142.52;100.00;62712.56;6101039;28;20239;-76
2023/03/18 03:08:48;;;;;;;1.53;1.43;;;;;;;-142.52;100.00;62712.56;6135368;28;20262;-76
2023/03/18 03:12:09;;;;;;;1.87;1.77;;;;;;;-142.52;100.00;62712.56;6103896;28;20235;-77
2023/03/18 03:15:36;;;;;;;11.13;2.80;;;;;;;-142.52;100.00;62712.56;6109721;28;20231;-77
2023/03/18 03:18:58;;;;;;;2.80;2.33;;;;;;;-142.52;100.00;62712.56;6126566;28;20230;-76
2023/03/18 03:22:19;;;;;;;2.70;2.00;;;;;;;-142.52;100.00;62712.56;6124364;28;20259;-77
2023/03/18 03:25:40;;;;;;;1.70;1.53;;;;;;;-142.52;100.00;62712.56;6125212;28;20243;-76
2023/03/18 03:29:05;;;;;;;1.87;1.63;;;;;;;-142.52;100.00;62712.56;6119670;28;20322;-76
2023/03/18 03:32:27;;;;;;;5.13;2.47;;;;;;;-142.52;100.00;62712.56;6097456;28;20318;-76
2023/03/18 03:35:50;;;;;;;2.13;1.80;;;;;;;-142.52;100.00;62712.56;6107643;28;20227;-78
2023/03/18 03:39:11;;;;;;;4.67;2.30;;;;;;;-142.52;100.00;62712.56;6134519;28;20617;-76
2023/03/18 03:42:32;;;;;;;2.30;2.07;;;;;;;-142.52;100.00;62712.56;6116766;28;20235;-76
2023/03/18 03:45:53;;;;;;;3.83;3.07;;;;;;;-142.52;100.00;62712.56;6110355;28;20235;-76
2023/03/18 03:49:14;;;;;;;4.30;1.93;;;;;;;-142.52;100.00;62712.56;6130176;28;20654;-75
2023/03/18 03:52:37;;;;;;;4.33;2.97;;;;;;;-142.52;100.00;62712.56;6115063;28;20625;-75
2023/03/18 03:55:58;;;;;;;2.90;2.13;;;;;;;-142.52;100.00;62712.56;6109782;28;20231;-76
2023/03/18 03:59:19;;;;;;;2.40;2.10;;;;;;;-142.52;100.00;62712.56;6134730;28;20239;-76
2023/03/18 04:03:08;;;;;;;3.67;2.30;;;;;;;-142.52;100.00;62712.56;6121681;28;20566;-76
2023/03/18 04:06:29;;;;;;;4.40;2.73;;;;;;;-142.52;100.00;62712.56;6117252;28;20258;-76
2023/03/18 04:09:56;;;;;;;6.17;2.93;;;;;;;-142.52;100.00;62712.56;6123202;28;20251;-77
2023/03/18 04:13:17;;;;;;;2.47;1.63;;;;;;;-142.52;100.00;62712.56;6112957;28;20224;-75
2023/03/18 04:16:38;;;;;;;6.87;2.60;;;;;;;-142.52;100.00;62712.56;6109054;28;20266;-77
2023/03/18 04:20:00;;;;;;;2.83;1.73;;;;;;;-142.52;100.00;62712.56;6118433;28;20239;-77
2023/03/18 04:23:24;;;;;;;1.40;1.40;;;;;;;-142.52;100.00;62712.56;6135568;28;20236;-77
2023/03/18 04:26:47;;;;;;;2.27;2.07;;;;;;;-142.52;100.00;62712.56;6128044;28;20231;-77
2023/03/18 04:30:12;;;;;;;3.27;2.63;;;;;;;-142.52;100.00;62712.56;6113283;28;20232;-77
2023/03/18 04:34:05;;;;;;;3.80;2.70;;;;;;;-142.52;100.00;62712.56;6134692;28;20230;-76
2023/03/18 04:37:27;;;;;;;3.97;2.13;;;;;;;-142.52;100.00;62712.56;6131747;28;20354;-76
2023/03/18 04:40:51;;;;;;;3.57;2.67;;;;;;;-142.52;100.00;62712.56;6117780;28;20230;-76
2023/03/18 04:44:14;;;;;;;3.10;2.57;;;;;;;-142.52;100.00;62712.56;6120945;28;20231;-76
2023/03/18 04:47:41;;;;;;;4.87;2.57;;;;;;;-142.52;100.00;62712.56;6100052;28;20239;-76
2023/03/18 04:51:04;;;;;;;4.60;2.80;;;;;;;-142.52;100.00;62712.56;6126884;28;20242;-76
2023/03/18 04:54:26;;;;;;;6.87;2.43;;;;;;;-142.52;100.00;62712.56;6115483;28;20231;-76
2023/03/18 04:57:49;;;;;;;3.43;2.63;;;;;;;-142.52;100.00;62712.56;6104448;28;21154;-76
2023/03/18 05:01:14;;;;;;;3.33;3.03;;;;;;;-142.52;100.00;62712.56;6114570;28;20234;-76
2023/03/18 05:04:38;;;;;;;3.50;2.83;;;;;;;-142.52;100.00;62712.56;6119736;28;20239;-76
2023/03/18 05:07:59;;;;;;;2.30;2.10;;;;;;;-142.52;100.00;62712.56;6128011;28;20342;-76
2023/03/18 05:11:21;;;;;;;4.43;4.03;;;;;;;-142.52;100.00;62712.56;6116198;28;20231;-76
2023/03/18 05:14:44;;;;;;;4.57;3.10;;;;;;;-142.52;100.00;62712.56;6124099;28;20236;-75
2023/03/18 05:18:06;;;;;;;3.07;2.50;;;;;;;-142.52;100.00;62712.56;6131994;28;20231;-77
2023/03/18 05:21:27;;;;;;;4.10;3.80;;;;;;;-142.52;100.00;62712.56;6125040;28;20235;-77
2023/03/18 05:24:49;;;;;;;4.33;3.37;;;;;;;-142.52;100.00;62712.56;6124306;28;20257;-76
2023/03/18 05:28:11;;;;;;;3.67;3.37;;;;;;;-142.52;100.00;62712.56;6124249;29;20649;-76
2023/03/18 05:31:41;;;;;;;7.77;3.47;;;;;;;-142.52;100.00;62712.56;6132672;28;20238;-76
2023/03/18 05:35:04;;;;;;;4.83;3.33;;;;;;;-142.52;100.00;62712.56;6137624;28;20247;-76
2023/03/18 05:38:28;;;;;;;9.33;5.17;;;;;;;-142.52;100.00;62712.56;6139390;28;20230;-76
2023/03/18 05:41:50;;;;;;;3.63;3.23;;;;;;;-142.52;100.00;62712.56;6124622;28;20264;-77
2023/03/18 05:45:18;;;;;;;5.03;4.23;;;;;;;-142.52;100.00;62712.56;6119106;28;20904;-76
2023/03/18 05:48:46;;;;;;;4.70;4.00;;;;;;;-142.52;100.00;62712.56;6126860;28;20234;-75
2023/03/18 05:52:09;;;;;;;6.70;3.67;;;;;;;-142.52;100.00;62712.56;6122436;28;20239;-76
2023/03/18 05:55:36;;;;;;;3.90;3.53;;;;;;;-142.52;100.00;62712.56;6128436;28;20239;-77
2023/03/18 05:58:57;;;;;;;4.50;4.07;;;;;;;-142.52;100.00;62712.56;6127042;28;21210;-76
2023/03/18 06:02:25;;;;;;;3.97;3.33;;;;;;;-142.52;100.00;62712.56;6126493;28;20516;-76
2023/03/18 06:05:48;;;;;;;4.70;4.17;;;;;;;-142.52;100.00;62712.56;6113778;28;20294;-77
2023/03/18 06:09:11;;;;;;;7.33;5.73;;;;;;;-142.52;100.00;62712.56;6138550;28;20262;-76
2023/03/18 06:12:35;;;;;;;7.40;4.83;;;;;;;-142.52;100.00;62712.56;6129593;28;20601;-76
2023/03/18 06:15:57;;;;;;;7.33;4.00;;;;;;;-142.52;100.00;62712.56;6135970;28;20259;-76
2023/03/18 06:19:18;;;;;;;6.87;4.60;;;;;;;-142.52;100.00;62712.56;6120630;28;20223;-77
2023/03/18 06:22:47;;;;;;;5.37;4.87;;;;;;;-142.52;100.00;62712.56;6097725;28;20227;-75
2023/03/18 06:26:10;;;;;;;6.20;4.77;;;;;;;-142.52;100.00;62712.56;6139429;28;20235;-77
2023/03/18 06:29:39;;;;;;;6.10;4.67;;;;;;;-142.52;100.00;62712.56;6127179;28;20233;-77
2023/03/18 06:33:05;;;;;;;6.33;4.70;;;;;;;-142.52;100.00;62712.56;6120692;28;20617;-76
2023/03/18 06:36:26;;;;;;;5.23;4.73;;;;;;;-142.52;100.00;62712.56;6116253;28;20271;-77
2023/03/18 06:39:48;;;;;;;3.90;3.53;;;;;;;-142.52;100.00;62712.56;6123012;28;20582;-76
2023/03/18 06:43:11;;;;;;;4.43;3.57;;;;;;;-142.52;100.00;62712.56;6133985;28;20235;-76
2023/03/18 06:46:35;;;;;;;6.90;5.37;;;;;;;-142.52;100.00;62712.56;6119290;28;20683;-76
2023/03/18 06:49:57;;;;;;;5.83;4.17;;;;;;;-142.52;100.00;62712.56;6116367;28;20247;-76
2023/03/18 06:53:24;;;;;;;4.67;4.23;;;;;;;-142.52;100.00;62712.56;6120145;28;20227;-76
2023/03/18 06:56:46;;;;;;;6.80;4.83;;;;;;;-142.52;100.00;62712.56;6123433;28;20229;-76
2023/03/18 07:00:14;;;;;;;7.10;4.70;;;;;;;-142.52;100.00;62712.56;6128430;28;20243;-76
2023/03/18 07:03:35;;;;;;;8.00;3.90;;;;;;;-142.52;100.00;62712.56;6105749;28;20243;-76
2023/03/18 07:06:56;;;;;;;6.60;4.20;;;;;;;-142.52;100.00;62712.56;6116962;28;20642;-76
2023/03/18 07:10:20;;;;;;;4.37;3.97;;;;;;;-142.52;100.00;62712.56;6117181;28;20496;-75
2023/03/18 07:13:43;;;;;;;8.30;4.97;;;;;;;-142.52;100.00;62712.56;6125239;28;20236;-75
2023/03/18 07:17:13;;;;;;;9.67;6.43;;;;;;;-142.52;100.00;62712.56;6114361;28;20313;-76
2023/03/18 07:20:35;;;;;;;6.27;4.90;;;;;;;-142.52;100.00;62712.56;6119448;28;20236;-76
2023/03/18 07:23:56;;;;;;;6.00;4.73;;;;;;;-142.52;100.00;62712.56;6122471;28;20230;-76
2023/03/18 07:27:18;;;;;;;7.97;4.30;;;;;;;-142.52;100.00;62712.56;6123944;28;20257;-76
2023/03/18 07:30:39;;;;;;;6.00;4.63;;;;;;;-142.52;100.00;62712.56;6118948;28;20242;-77
2023/03/18 07:34:02;;;;;;;5.57;4.97;;;;;;;-142.52;100.00;62712.56;6135532;28;20226;-77
2023/03/18 07:37:25;;;;;;;5.87;3.93;;;;;;;-142.52;100.00;62712.56;6124672;28;20315;-76
2023/03/18 07:40:47;;;;;;;8.33;5.37;;;;;;;-142.52;100.00;62712.56;6135491;28;20683;-77
2023/03/18 07:44:08;;;;;;;9.00;4.23;;;;;;;-142.52;100.00;62712.56;6132120;28;20227;-77
2023/03/18 07:47:29;;;;;;;8.83;5.13;;;;;;;-142.52;100.00;62712.56;6132938;28;20339;-77
2023/03/18 07:50:51;;;;;;;7.63;4.33;;;;;;;-142.52;100.00;62712.56;6134140;28;20315;-77
2023/03/18 07:54:13;;;;;;;6.33;3.73;;;;;;;-142.52;100.00;62712.56;6138028;28;20715;-76
2023/03/18 07:57:34;;;;;;;5.47;4.97;;;;;;;-142.52;100.00;62712.56;6126748;28;20655;-75
2023/03/18 08:00:55;;;;;;;8.07;5.07;;;;;;;-142.52;100.00;62712.56;6130602;28;20235;-77
2023/03/18 08:04:16;;;;;;;5.47;4.00;;;;;;;-142.52;100.00;62712.56;6135318;28;20234;-77
2023/03/18 08:07:38;;;;;;;7.23;6.30;;;;;;;-142.52;100.00;62712.56;6134175;28;20318;-75
2023/03/18 08:11:01;;;;;;;7.70;5.33;;;;;;;-142.52;100.00;62712.56;6129552;28;20227;-76
2023/03/18 08:14:22;;;;;;;8.50;6.33;;;;;;;-142.52;100.00;62712.56;6133149;28;20251;-76
2023/03/18 08:17:42;;;;;;;7.10;5.47;;;;;;;-142.52;100.00;62712.56;6124438;28;20227;-75
2023/03/18 08:21:04;;;;;;;9.17;4.50;;;;;;;-142.52;100.00;62712.56;6129994;28;20223;-75
2023/03/18 08:24:27;;;;;;;10.10;5.30;;;;;;;-142.52;100.00;62712.56;6132578;28;20236;-76
2023/03/18 08:27:48;;;;;;;10.83;5.40;;;;;;;-142.52;100.00;62712.56;6135115;28;20231;-75
2023/03/18 08:31:09;;;;;;;8.57;6.93;;;;;;;-142.52;100.00;62712.56;6130849;28;20239;-75
2023/03/18 08:34:29;;;;;;;7.30;5.60;;;;;;;-142.52;100.00;62712.56;6139091;28;20671;-76
2023/03/18 08:37:50;;;;;;;6.90;5.00;;;;;;;-142.52;100.00;62712.56;6134257;28;20590;-77
2023/03/18 08:41:13;;;;;;;5.50;4.90;;;;;;;-142.52;100.00;62712.56;6142301;28;20227;-76
2023/03/18 08:44:35;;;;;;;7.73;4.73;;;;;;;-142.52;100.00;62712.56;6137918;28;20235;-76
2023/03/18 08:47:56;;;;;;;5.90;4.13;;;;;;;-142.52;100.00;62712.56;6129642;28;20231;-77
2023/03/18 08:51:17;;;;;;;5.23;4.70;;;;;;;-142.52;100.00;62712.56;6130231;28;20239;-76
2023/03/18 08:54:38;;;;;;;6.30;5.70;;;;;;;-142.52;100.00;62712.56;6137539;28;20634;-76
2023/03/18 08:58:01;;;;;;;6.20;4.40;;;;;;;-142.52;100.00;62712.56;6135005;28;20355;-77
2023/03/18 09:01:22;;;;;;;7.10;5.20;;;;;;;-142.52;100.00;62712.56;6131624;28;20361;-77
2023/03/18 09:04:43;;;;;;;5.50;5.00;;;;;;;-142.52;100.00;62712.56;6130965;28;20227;-76
2023/03/18 09:08:05;;;;;;;6.63;5.80;;;;;;;-142.52;100.00;62712.56;6130641;28;20274;-76
2023/03/18 09:11:26;;;;;;;7.57;5.33;;;;;;;-142.52;100.00;62712.56;6133462;28;20231;-76
2023/03/18 09:14:49;;;;;;;6.37;5.30;;;;;;;-142.52;100.00;62712.56;6107586;28;20238;-77
2023/03/18 09:18:10;;;;;;;7.50;5.07;;;;;;;-142.52;100.00;62712.56;6136429;28;20326;-76
2023/03/18 09:21:31;;;;;;;7.60;5.37;;;;;;;-142.52;100.00;62712.56;6135569;28;20897;-76
2023/03/18 09:24:52;;;;;;;6.03;5.13;;;;;;;-142.52;100.00;62712.56;6131153;28;20314;-76
2023/03/18 09:28:14;;;;;;;6.03;5.00;;;;;;;-142.52;100.00;62712.56;6132302;28;20231;-75
2023/03/18 09:31:37;;;;;;;6.83;5.60;;;;;;;-142.52;100.00;62712.56;6135103;28;20355;-76
2023/03/18 09:34:58;;;;;;;7.37;4.83;;;;;;;-142.52;100.00;62712.56;6134158;28;20224;-75
2023/03/18 09:38:21;;;;;;;5.20;4.70;;;;;;;-142.52;100.00;62712.56;6135627;28;20235;-77
2023/03/18 09:41:50;;;;;;;7.83;4.30;;;;;;;-142.52;100.00;62712.56;6129376;28;20243;-77
2023/03/18 09:45:19;;;;;;;8.03;5.90;;;;;;;-142.52;100.00;62712.56;6124297;28;20231;-77
2023/03/18 09:48:55;;;;;;;5.73;4.47;;;;;;;-142.52;100.00;62712.56;6135621;28;20227;-77
2023/03/18 09:52:22;;;;;;;4.70;4.30;;;;;;;-142.52;100.00;62712.56;6117433;28;20243;-78
2023/03/18 09:55:45;;;;;;;9.13;5.27;;;;;;;-142.52;100.00;62712.56;6101601;28;20232;-77
2023/03/18 09:59:16;;;;;;;5.40;4.40;;;;;;;-142.52;100.00;62712.56;6115672;28;20239;-77
2023/03/18 10:02:42;;;;;;;5.30;4.13;;;;;;;-142.52;100.00;62712.56;6114917;28;20255;-78
2023/03/18 10:06:08;;;;;;;7.43;4.03;;;;;;;-142.52;100.00;62712.56;6126209;28;20239;-78
2023/03/18 10:09:34;;;;;;;9.40;4.70;;;;;;;-142.52;100.00;62712.56;6120075;28;20231;-76
2023/03/18 10:13:02;;;;;;;6.83;6.13;;;;;;;-142.52;100.00;62712.56;6115430;28;20549;-76
2023/03/18 10:16:27;;;;;;;5.23;4.73;;;;;;;-142.52;100.00;62712.56;6121056;28;20246;-76
2023/03/18 10:19:53;;;;;;;7.43;5.33;;;;;;;-142.52;100.00;62712.56;6104544;28;20231;-71
2023/03/18 10:23:27;;;;;;;4.40;3.97;;;;;;;-142.52;100.00;62712.56;6110051;28;20273;-71
2023/03/18 10:26:52;;;;;;;6.23;4.77;;;;;;;-142.52;100.00;62712.56;6119112;28;20570;-71
2023/03/18 10:30:31;;;;;;;9.37;4.53;;;;;;;-142.52;100.00;62712.56;6103750;28;20239;-71
2023/03/18 10:33:58;;;;;;;5.67;4.90;;;;;;;-142.52;100.00;62712.56;6109407;28;20258;-70
2023/03/18 10:37:30;;;;;;;5.10;4.60;;;;;;;-142.52;100.00;62712.56;6106665;28;20231;-69
2023/03/18 10:40:53;;;;;;;9.87;6.57;;;;;;;-142.52;100.00;62712.56;6097690;28;21435;-71
2023/03/18 10:44:19;;;;;;;4.63;4.03;;;;;;;-142.52;100.00;62712.56;6104603;28;20223;-71
2023/03/18 10:47:45;;;;;;;6.43;4.77;;;;;;;-142.52;100.00;62712.56;6106819;28;20613;-71
2023/03/18 10:51:12;;;;;;;6.17;4.90;;;;;;;-142.52;100.00;62712.56;6104780;28;20257;-71
2023/03/18 10:54:40;;;;;;;6.33;5.77;;;;;;;-142.52;100.00;62712.56;6110692;28;20224;-74
2023/03/18 10:58:14;;;;;;;5.88;5.35;;;;;;;-142.52;100.00;62712.56;6111789;28;20761;-70
2023/03/18 11:01:36;;;;;;;11.07;6.53;;;;;;;-142.52;100.00;62712.56;6107259;28;20234;-70
2023/03/18 11:05:03;;;;;;;6.30;4.97;;;;;;;-142.52;100.00;62712.56;6106765;28;20226;-70
2023/03/18 11:08:33;;;;;;;5.97;5.40;;;;;;;-142.52;100.00;62712.56;6110034;28;20227;-72
2023/03/18 11:11:57;;;;;;;8.03;5.90;;;;;;;-142.52;100.00;62712.56;6110756;28;20247;-71
2023/03/18 11:15:20;;;;;;;8.43;5.03;;;;;;;-142.52;100.00;62712.56;6116458;28;20230;-71
2023/03/18 11:18:46;;;;;;;11.00;4.90;;;;;;;-142.52;100.00;62712.56;6104709;28;20252;-71
2023/03/18 11:22:19;;;;;;;4.53;4.13;;;;;;;-142.52;100.00;62712.56;6102900;28;20243;-72
2023/03/18 11:25:40;;;;;;;6.30;3.97;;;;;;;-142.52;100.00;62712.56;6104399;28;20230;-71
2023/03/18 11:29:10;;;;;;;8.80;4.78;;;;;;;-142.52;100.00;62712.56;6118093;28;20243;-72
2023/03/18 11:32:35;;;;;;;5.07;4.55;;;;;;;-142.52;100.00;62712.56;6113261;28;20236;-71
2023/03/18 11:35:58;;;;;;;6.22;3.97;;;;;;;-142.52;100.00;62712.56;6095092;28;20239;-71
2023/03/18 11:39:20;;;;;;;9.18;3.88;;;;;;;-142.52;100.00;62712.56;6081561;28;20235;-69
2023/03/18 11:42:42;;;;;;;6.20;3.50;;;;;;;-142.52;100.00;62712.56;6077439;28;20250;-71
2023/03/18 11:46:05;;;;;;;2.60;2.40;;;;;;;-142.52;100.00;62712.56;6109161;28;20856;-72
2023/03/18 11:49:30;;;;;;;4.60;3.78;;;;;;;-142.52;100.00;62712.56;6113719;28;20243;-70
2023/03/18 11:52:57;;;;;;;5.70;3.92;;;;;;;-142.52;100.00;62712.56;6112267;28;20234;-70
2023/03/18 11:56:27;;;;;;;4.07;3.67;;;;;;;-142.52;100.00;62712.56;6113152;28;20250;-71
2023/03/18 12:00:07;;;;;;;3.72;3.33;;;;;;;-142.52;100.00;62712.56;6111380;28;20230;-69
2023/03/18 12:03:57;;;;;;;4.93;3.15;;;;;;;-142.52;100.00;62712.56;6117640;28;20818;-71
2023/03/18 12:07:48;;;;;;;4.57;4.20;;;;;;;-142.52;100.00;62712.56;6114446;28;20436;-71
2023/03/18 12:11:13;;;;;;;8.15;4.00;;;;;;;-142.52;100.00;62712.56;6104222;28;20552;-72
2023/03/18 12:14:40;;;;;;;6.95;4.20;;;;;;;-142.52;100.00;62712.56;6106366;28;21065;-69
2023/03/18 12:18:07;;;;;;;3.42;3.13;;;;;;;-142.52;100.00;62712.56;6119257;28;20234;-70
2023/03/18 12:21:50;;;;;;;3.30;3.10;;;;;;;-142.52;100.00;62712.56;6109441;28;20263;-69
2023/03/18 12:25:29;;;;;;;9.45;4.07;;;;;;;-142.52;100.00;62712.56;6119540;28;20235;-69
2023/03/18 12:29:35;;;;;;;6.00;3.17;;;;;;;-142.52;100.00;62712.56;6119096;28;20219;-71
2023/03/18 12:33:03;;;;;;;3.70;3.40;;;;;;;-142.52;100.00;62712.56;6068487;28;20240;-70
2023/03/18 12:36:36;;;;;;;3.30;2.72;;;;;;;-142.52;100.00;62712.56;6119776;28;20242;-71
2023/03/18 12:40:12;;;;;;;3.33;3.03;;;;;;;-142.52;100.00;62712.56;6119730;28;20268;-72
2023/03/18 12:43:59;;;;;;;3.25;2.25;;;;;;;-142.52;100.00;62712.56;6114625;28;20244;-70
2023/03/18 12:47:24;;;;;;;2.85;1.90;;;;;;;-142.52;100.00;62712.56;6107129;28;20234;-73
2023/03/18 12:50:51;;;;;;;9.55;3.55;;;;;;;-142.52;100.00;62712.56;6106049;28;20767;-75
2023/03/18 12:54:21;;;;;;;2.75;2.53;;;;;;;-142.52;100.00;62712.56;6114844;28;20248;-72
2023/03/18 12:57:50;;;;;;;4.28;2.85;;;;;;;-142.52;100.00;62712.56;6081129;28;20230;-72
2023/03/18 13:01:19;;;;;;;3.50;2.65;;;;;;;-142.52;100.00;62712.56;6116124;28;20622;-71
2023/03/18 13:04:54;;;;;;;4.03;3.03;;;;;;;-142.52;100.00;62712.56;6124765;28;20223;-72
2023/03/18 13:08:37;;;;;;;8.30;3.47;;;;;;;-142.52;100.00;62712.56;6125652;28;20616;-70
2023/03/18 13:12:04;;;;;;;3.33;3.03;;;;;;;-142.52;100.00;62712.56;6134068;28;20243;-71
2023/03/18 13:15:30;;;;;;;3.55;3.35;;;;;;;-142.52;100.00;62712.56;6139451;28;20227;-73
2023/03/18 13:18:57;;;;;;;4.60;2.90;;;;;;;-142.52;100.00;62712.56;6105249;28;20314;-72
2023/03/18 13:22:45;;;;;;;4.55;3.42;;;;;;;-142.52;100.00;62712.56;6105923;28;20235;-73
2023/03/18 13:26:15;;;;;;;4.63;3.67;;;;;;;-142.52;100.00;62712.56;6137895;28;20276;-73
2023/03/18 13:29:43;;;;;;;3.60;3.40;;;;;;;-142.52;100.00;62712.56;6130323;28;20238;-73
2023/03/18 13:33:25;;;;;;;5.53;4.45;;;;;;;-142.52;100.00;62712.56;6131177;28;21801;-72
2023/03/18 13:37:00;;;;;;;4.70;3.78;;;;;;;-142.52;100.00;62712.56;6132050;28;20227;-73
2023/03/18 13:40:42;;;;;;;5.10;3.58;;;;;;;-142.52;100.00;62712.56;6136832;28;20236;-74
2023/03/18 13:44:11;;;;;;;5.25;4.85;;;;;;;-142.52;100.00;62712.56;6131707;28;20239;-73
2023/03/18 13:47:36;;;;;;;4.35;3.67;;;;;;;-142.52;100.00;62712.56;6125593;28;20231;-74
2023/03/18 13:50:58;;;;;;;9.38;4.53;;;;;;;-142.52;100.00;62712.56;6135613;28;20239;-73
2023/03/18 13:54:21;;;;;;;8.13;5.85;;;;;;;-142.52;100.00;62712.56;6134935;28;20235;-73
2023/03/18 13:57:47;;;;;;;6.80;6.10;;;;;;;-142.52;100.00;62712.56;6125928;28;20239;-74
2023/03/18 14:01:25;;;;;;;8.33;5.20;;;;;;;-142.52;100.00;62712.56;6133578;28;20235;-73
2023/03/18 14:04:48;;;;;;;8.67;6.73;;;;;;;-142.52;100.00;62712.56;6131211;28;20239;-73
2023/03/18 14:08:43;;;;;;;6.63;6.00;;;;;;;-142.52;100.00;62712.56;6139153;28;20326;-73
2023/03/18 14:12:20;;;;;;;5.57;5.07;;;;;;;-142.52;100.00;62712.56;6137716;28;20235;-73
2023/03/18 14:15:44;;;;;;;5.47;4.97;;;;;;;-142.52;100.00;62712.56;6129340;28;20235;-73
2023/03/18 14:19:13;;;;;;;6.63;5.43;;;;;;;-142.52;100.00;62712.56;6136948;28;20235;-72
2023/03/18 14:22:36;;;;;;;8.88;6.30;;;;;;;-142.52;100.00;62712.56;6126220;28;20226;-73
2023/03/18 14:26:02;;;;;;;7.32;6.38;;;;;;;-142.52;100.00;62712.56;6135618;28;20239;-73
2023/03/18 14:29:29;;;;;;;6.72;6.05;;;;;;;-142.52;100.00;62712.56;6144723;28;20223;-73
2023/03/18 14:32:57;;;;;;;9.05;5.47;;;;;;;-142.52;100.00;62712.56;6128358;28;20234;-73
2023/03/18 14:36:28;;;;;;;7.07;6.43;;;;;;;-142.52;100.00;62712.56;6129886;28;20379;-73
2023/03/18 14:39:52;;;;;;;8.07;6.67;;;;;;;-142.52;100.00;62712.56;6138283;28;20231;-73
2023/03/18 14:43:20;;;;;;;6.32;5.82;;;;;;;-142.52;100.00;62712.56;6138081;28;20316;-74
2023/03/18 14:46:45;;;;;;;6.90;5.50;;;;;;;-142.52;100.00;62712.56;6134389;28;20542;-73
2023/03/18 14:50:14;;;;;;;5.78;5.28;;;;;;;-142.52;100.00;62712.56;6134809;28;20239;-73
2023/03/18 14:53:38;;;;;;;8.23;5.20;;;;;;;-142.52;100.00;62712.56;6136058;28;20235;-73
2023/03/18 14:57:04;;;;;;;9.00;6.65;;;;;;;-142.52;100.00;62712.56;6131085;28;20317;-73
2023/03/18 15:00:25;;;;;;;7.50;6.47;;;;;;;-142.52;100.00;62712.56;6128674;28;20227;-73
2023/03/18 15:03:49;;;;;;;7.90;5.93;;;;;;;-142.52;100.00;62712.56;6132313;28;20250;-74
2023/03/18 15:07:10;;;;;;;5.80;5.05;;;;;;;-142.52;100.00;62712.56;6134921;28;22244;-73
2023/03/18 15:10:32;;;;;;;6.17;5.10;;;;;;;-142.52;100.00;62712.56;6123445;28;20246;-73
2023/03/18 15:13:54;;;;;;;8.00;5.53;;;;;;;-142.52;100.00;62712.56;6103028;28;20226;-73
2023/03/18 15:17:18;;;;;;;6.13;5.50;;;;;;;-142.52;100.00;62712.56;6129442;28;20239;-74
2023/03/18 15:20:40;;;;;;;13.70;5.75;;;;;;;-142.52;100.00;62712.56;6125402;28;20235;-73
2023/03/18 15:24:04;;;;;;;4.95;4.10;;;;;;;-142.52;100.00;62712.56;6127550;28;20251;-73
2023/03/18 15:27:26;;;;;;;8.20;5.65;;;;;;;-142.52;100.00;62712.56;6137869;28;20227;-74
2023/03/18 15:30:53;;;;;;;6.45;4.45;;;;;;;-142.52;100.00;62712.56;6136684;28;20230;-73
2023/03/18 15:34:18;;;;;;;8.20;4.53;;;;;;;-142.52;100.00;62712.56;6127213;28;20247;-73